sensor_id;sensor_type;location;lat;lon;timestamp;P1;durP1;ratioP1;P2;durP2;ratioP2
6292;SDS011;3179;54.350;10.102;2023-12-04T00:01:35;18.60;;;13.83;;
6292;SDS011;3179;54.350;10.102;2023-12-04T00:04:02;21.13;;;14.97;;
6292;SDS011;3179;54.350;10.102;2023-12-04T00:06:29;24.77;;;16.50;;
6292;SDS011;3179;54.350;10.102;2023-12-04T00:08:55;22.30;;;14.90;;
6292;SDS011;3179;54.350;10.102;2023-12-04T00:11:22;19.97;;;15.17;;
6292;SDS011;3179;54.350;10.102;2023-12-04T00:13:49;20.83;;;14.13;;
6292;SDS011;3179;54.350;10.102;2023-12-04T00:16:17;19.73;;;14.27;;
6292;SDS011;3179;54.350;10.102;2023-12-04T00:18:44;19.20;;;13.90;;
6292;SDS011;3179;54.350;10.102;2023-12-04T00:21:12;22.00;;;15.80;;
6292;SDS011;3179;54.350;10.102;2023-12-04T00:23:39;20.23;;;14.17;;
6292;SDS011;3179;54.350;10.102;2023-12-04T00:26:06;18.60;;;13.60;;
6292;SDS011;3179;54.350;10.102;2023-12-04T00:28:35;22.50;;;15.07;;
6292;SDS011;3179;54.350;10.102;2023-12-04T00:31:02;20.00;;;15.40;;
6292;SDS011;3179;54.350;10.102;2023-12-04T00:33:31;22.37;;;16.17;;
6292;SDS011;3179;54.350;10.102;2023-12-04T00:35:58;22.47;;;15.30;;
6292;SDS011;3179;54.350;10.102;2023-12-04T00:38:25;24.30;;;16.27;;
6292;SDS011;3179;54.350;10.102;2023-12-04T00:40:52;24.50;;;16.50;;
6292;SDS011;3179;54.350;10.102;2023-12-04T00:43:18;25.13;;;16.67;;
6292;SDS011;3179;54.350;10.102;2023-12-04T00:45:45;23.30;;;16.67;;
6292;SDS011;3179;54.350;10.102;2023-12-04T00:48:12;24.23;;;16.83;;
6292;SDS011;3179;54.350;10.102;2023-12-04T00:50:40;24.50;;;17.33;;
6292;SDS011;3179;54.350;10.102;2023-12-04T00:53:07;20.37;;;14.83;;
6292;SDS011;3179;54.350;10.102;2023-12-04T00:55:34;21.73;;;16.03;;
6292;SDS011;3179;54.350;10.102;2023-12-04T00:58:01;23.60;;;15.80;;
6292;SDS011;3179;54.350;10.102;2023-12-04T01:00:28;22.07;;;16.30;;
6292;SDS011;3179;54.350;10.102;2023-12-04T01:02:54;23.97;;;15.70;;
6292;SDS011;3179;54.350;10.102;2023-12-04T01:05:21;26.17;;;17.23;;
6292;SDS011;3179;54.350;10.102;2023-12-04T01:07:49;24.23;;;16.70;;
6292;SDS011;3179;54.350;10.102;2023-12-04T01:10:16;21.63;;;15.77;;
6292;SDS011;3179;54.350;10.102;2023-12-04T01:12:43;20.40;;;15.47;;
6292;SDS011;3179;54.350;10.102;2023-12-04T01:15:10;20.90;;;15.47;;
6292;SDS011;3179;54.350;10.102;2023-12-04T01:17:37;23.10;;;15.17;;
6292;SDS011;3179;54.350;10.102;2023-12-04T01:20:04;23.87;;;15.87;;
6292;SDS011;3179;54.350;10.102;2023-12-04T01:22:32;18.87;;;12.53;;
6292;SDS011;3179;54.350;10.102;2023-12-04T01:25:00;23.17;;;16.27;;
6292;SDS011;3179;54.350;10.102;2023-12-04T01:27:28;25.57;;;16.80;;
6292;SDS011;3179;54.350;10.102;2023-12-04T01:29:55;24.37;;;14.33;;
6292;SDS011;3179;54.350;10.102;2023-12-04T01:32:21;24.90;;;15.77;;
6292;SDS011;3179;54.350;10.102;2023-12-04T01:34:48;22.53;;;15.20;;
6292;SDS011;3179;54.350;10.102;2023-12-04T01:37:15;23.00;;;16.30;;
6292;SDS011;3179;54.350;10.102;2023-12-04T01:39:42;25.00;;;16.63;;
6292;SDS011;3179;54.350;10.102;2023-12-04T01:42:10;20.23;;;13.73;;
6292;SDS011;3179;54.350;10.102;2023-12-04T01:44:37;19.33;;;13.57;;
6292;SDS011;3179;54.350;10.102;2023-12-04T01:47:04;23.40;;;14.57;;
6292;SDS011;3179;54.350;10.102;2023-12-04T01:49:32;19.27;;;14.03;;
6292;SDS011;3179;54.350;10.102;2023-12-04T01:51:59;21.80;;;15.03;;
6292;SDS011;3179;54.350;10.102;2023-12-04T01:54:26;22.77;;;15.17;;
6292;SDS011;3179;54.350;10.102;2023-12-04T01:56:53;19.80;;;14.50;;
6292;SDS011;3179;54.350;10.102;2023-12-04T01:59:22;19.57;;;13.93;;
6292;SDS011;3179;54.350;10.102;2023-12-04T02:01:49;21.03;;;14.23;;
6292;SDS011;3179;54.350;10.102;2023-12-04T02:04:16;23.40;;;15.33;;
6292;SDS011;3179;54.350;10.102;2023-12-04T02:06:42;19.67;;;14.20;;
6292;SDS011;3179;54.350;10.102;2023-12-04T02:09:09;21.00;;;14.53;;
6292;SDS011;3179;54.350;10.102;2023-12-04T02:11:39;19.43;;;13.13;;
6292;SDS011;3179;54.350;10.102;2023-12-04T02:14:06;18.53;;;13.47;;
6292;SDS011;3179;54.350;10.102;2023-12-04T02:16:35;18.63;;;13.33;;
6292;SDS011;3179;54.350;10.102;2023-12-04T02:19:06;20.87;;;13.70;;
6292;SDS011;3179;54.350;10.102;2023-12-04T02:21:34;20.80;;;14.00;;
6292;SDS011;3179;54.350;10.102;2023-12-04T02:24:02;21.37;;;15.33;;
6292;SDS011;3179;54.350;10.102;2023-12-04T02:26:30;23.17;;;15.47;;
6292;SDS011;3179;54.350;10.102;2023-12-04T02:29:01;19.23;;;14.43;;
6292;SDS011;3179;54.350;10.102;2023-12-04T02:31:35;23.37;;;13.73;;
6292;SDS011;3179;54.350;10.102;2023-12-04T02:34:05;22.13;;;15.53;;
6292;SDS011;3179;54.350;10.102;2023-12-04T02:36:33;19.87;;;13.80;;
6292;SDS011;3179;54.350;10.102;2023-12-04T02:39:02;24.10;;;15.20;;
6292;SDS011;3179;54.350;10.102;2023-12-04T02:41:30;21.10;;;14.23;;
6292;SDS011;3179;54.350;10.102;2023-12-04T02:43:57;22.20;;;12.77;;
6292;SDS011;3179;54.350;10.102;2023-12-04T02:46:24;22.43;;;14.70;;
6292;SDS011;3179;54.350;10.102;2023-12-04T02:48:51;23.13;;;14.73;;
6292;SDS011;3179;54.350;10.102;2023-12-04T02:51:18;24.00;;;14.60;;
6292;SDS011;3179;54.350;10.102;2023-12-04T02:53:44;23.00;;;14.57;;
6292;SDS011;3179;54.350;10.102;2023-12-04T02:56:13;26.73;;;15.97;;
6292;SDS011;3179;54.350;10.102;2023-12-04T02:58:39;21.70;;;14.97;;
6292;SDS011;3179;54.350;10.102;2023-12-04T03:01:06;26.00;;;16.53;;
6292;SDS011;3179;54.350;10.102;2023-12-04T03:03:33;22.53;;;15.00;;
6292;SDS011;3179;54.350;10.102;2023-12-04T03:06:01;20.70;;;12.47;;
6292;SDS011;3179;54.350;10.102;2023-12-04T03:08:28;22.93;;;15.20;;
6292;SDS011;3179;54.350;10.102;2023-12-04T03:10:55;20.43;;;14.10;;
6292;SDS011;3179;54.350;10.102;2023-12-04T03:13:23;20.57;;;15.63;;
6292;SDS011;3179;54.350;10.102;2023-12-04T03:15:50;18.40;;;13.07;;
6292;SDS011;3179;54.350;10.102;2023-12-04T03:18:17;22.10;;;14.53;;
6292;SDS011;3179;54.350;10.102;2023-12-04T03:20:44;23.70;;;14.07;;
6292;SDS011;3179;54.350;10.102;2023-12-04T03:23:11;25.30;;;16.37;;
6292;SDS011;3179;54.350;10.102;2023-12-04T03:25:38;24.70;;;15.03;;
6292;SDS011;3179;54.350;10.102;2023-12-04T03:28:04;25.30;;;16.70;;
6292;SDS011;3179;54.350;10.102;2023-12-04T03:30:33;22.63;;;15.43;;
6292;SDS011;3179;54.350;10.102;2023-12-04T03:32:59;24.77;;;15.50;;
6292;SDS011;3179;54.350;10.102;2023-12-04T03:35:26;23.97;;;15.07;;
6292;SDS011;3179;54.350;10.102;2023-12-04T03:37:53;23.20;;;14.93;;
6292;SDS011;3179;54.350;10.102;2023-12-04T03:40:20;23.63;;;15.60;;
6292;SDS011;3179;54.350;10.102;2023-12-04T03:42:47;24.40;;;16.10;;
6292;SDS011;3179;54.350;10.102;2023-12-04T03:45:14;20.30;;;13.83;;
6292;SDS011;3179;54.350;10.102;2023-12-04T03:47:42;23.13;;;15.10;;
6292;SDS011;3179;54.350;10.102;2023-12-04T03:50:09;22.53;;;15.03;;
6292;SDS011;3179;54.350;10.102;2023-12-04T03:52:36;24.17;;;15.77;;
6292;SDS011;3179;54.350;10.102;2023-12-04T03:55:03;20.37;;;14.07;;
6292;SDS011;3179;54.350;10.102;2023-12-04T03:57:31;24.57;;;15.50;;
6292;SDS011;3179;54.350;10.102;2023-12-04T03:59:57;24.97;;;15.90;;
6292;SDS011;3179;54.350;10.102;2023-12-04T04:02:24;23.97;;;14.23;;
6292;SDS011;3179;54.350;10.102;2023-12-04T04:04:52;21.70;;;13.60;;
6292;SDS011;3179;54.350;10.102;2023-12-04T04:07:19;25.73;;;15.20;;
6292;SDS011;3179;54.350;10.102;2023-12-04T04:09:46;22.90;;;15.07;;
6292;SDS011;3179;54.350;10.102;2023-12-04T04:12:13;20.97;;;14.60;;
6292;SDS011;3179;54.350;10.102;2023-12-04T04:14:40;22.90;;;14.47;;
6292;SDS011;3179;54.350;10.102;2023-12-04T04:17:07;20.93;;;14.53;;
6292;SDS011;3179;54.350;10.102;2023-12-04T04:19:34;24.03;;;14.93;;
6292;SDS011;3179;54.350;10.102;2023-12-04T04:22:02;20.87;;;15.13;;
6292;SDS011;3179;54.350;10.102;2023-12-04T04:24:29;20.70;;;14.70;;
6292;SDS011;3179;54.350;10.102;2023-12-04T04:26:56;23.07;;;15.67;;
6292;SDS011;3179;54.350;10.102;2023-12-04T04:29:23;19.43;;;13.10;;
6292;SDS011;3179;54.350;10.102;2023-12-04T04:31:50;23.37;;;14.83;;
6292;SDS011;3179;54.350;10.102;2023-12-04T04:34:17;23.37;;;14.43;;
6292;SDS011;3179;54.350;10.102;2023-12-04T04:36:44;22.70;;;15.27;;
6292;SDS011;3179;54.350;10.102;2023-12-04T04:39:12;20.97;;;13.67;;
6292;SDS011;3179;54.350;10.102;2023-12-04T04:41:40;21.63;;;13.90;;
6292;SDS011;3179;54.350;10.102;2023-12-04T04:44:07;19.70;;;13.93;;
6292;SDS011;3179;54.350;10.102;2023-12-04T04:46:33;24.33;;;15.13;;
6292;SDS011;3179;54.350;10.102;2023-12-04T04:49:00;22.27;;;14.40;;
6292;SDS011;3179;54.350;10.102;2023-12-04T04:51:31;20.53;;;13.50;;
6292;SDS011;3179;54.350;10.102;2023-12-04T04:53:58;22.73;;;13.87;;
6292;SDS011;3179;54.350;10.102;2023-12-04T04:56:26;22.03;;;14.13;;
6292;SDS011;3179;54.350;10.102;2023-12-04T04:58:53;21.73;;;13.30;;
6292;SDS011;3179;54.350;10.102;2023-12-04T05:01:20;21.80;;;14.97;;
6292;SDS011;3179;54.350;10.102;2023-12-04T05:03:47;20.57;;;13.77;;
6292;SDS011;3179;54.350;10.102;2023-12-04T05:06:14;22.40;;;14.50;;
6292;SDS011;3179;54.350;10.102;2023-12-04T05:08:41;21.33;;;13.33;;
6292;SDS011;3179;54.350;10.102;2023-12-04T05:11:08;19.30;;;13.50;;
6292;SDS011;3179;54.350;10.102;2023-12-04T05:13:36;21.53;;;14.60;;
6292;SDS011;3179;54.350;10.102;2023-12-04T05:16:03;24.63;;;15.20;;
6292;SDS011;3179;54.350;10.102;2023-12-04T05:18:31;18.73;;;13.27;;
6292;SDS011;3179;54.350;10.102;2023-12-04T05:20:58;20.43;;;13.33;;
6292;SDS011;3179;54.350;10.102;2023-12-04T05:23:25;19.90;;;13.50;;
6292;SDS011;3179;54.350;10.102;2023-12-04T05:25:51;20.83;;;13.30;;
6292;SDS011;3179;54.350;10.102;2023-12-04T05:28:18;20.57;;;14.00;;
6292;SDS011;3179;54.350;10.102;2023-12-04T05:30:48;18.70;;;12.50;;
6292;SDS011;3179;54.350;10.102;2023-12-04T05:33:14;26.20;;;15.20;;
6292;SDS011;3179;54.350;10.102;2023-12-04T05:35:41;20.03;;;12.73;;
6292;SDS011;3179;54.350;10.102;2023-12-04T05:38:08;19.97;;;13.43;;
6292;SDS011;3179;54.350;10.102;2023-12-04T05:40:35;20.50;;;14.00;;
6292;SDS011;3179;54.350;10.102;2023-12-04T05:43:02;24.57;;;15.50;;
6292;SDS011;3179;54.350;10.102;2023-12-04T05:45:30;24.63;;;14.97;;
6292;SDS011;3179;54.350;10.102;2023-12-04T05:47:58;19.00;;;12.80;;
6292;SDS011;3179;54.350;10.102;2023-12-04T05:50:25;19.20;;;12.33;;
6292;SDS011;3179;54.350;10.102;2023-12-04T05:52:52;21.80;;;13.83;;
6292;SDS011;3179;54.350;10.102;2023-12-04T05:55:18;20.77;;;14.10;;
6292;SDS011;3179;54.350;10.102;2023-12-04T05:57:46;18.57;;;12.00;;
6292;SDS011;3179;54.350;10.102;2023-12-04T06:00:13;21.23;;;13.77;;
6292;SDS011;3179;54.350;10.102;2023-12-04T06:02:41;20.33;;;13.67;;
6292;SDS011;3179;54.350;10.102;2023-12-04T06:05:10;19.60;;;13.17;;
6292;SDS011;3179;54.350;10.102;2023-12-04T06:07:38;20.03;;;13.73;;
6292;SDS011;3179;54.350;10.102;2023-12-04T06:10:06;18.43;;;12.63;;
6292;SDS011;3179;54.350;10.102;2023-12-04T06:12:34;21.67;;;13.23;;
6292;SDS011;3179;54.350;10.102;2023-12-04T06:15:01;19.47;;;13.60;;
6292;SDS011;3179;54.350;10.102;2023-12-04T06:17:28;18.97;;;12.50;;
6292;SDS011;3179;54.350;10.102;2023-12-04T06:19:55;21.03;;;12.80;;
6292;SDS011;3179;54.350;10.102;2023-12-04T06:22:23;16.10;;;12.00;;
6292;SDS011;3179;54.350;10.102;2023-12-04T06:24:51;17.80;;;11.97;;
6292;SDS011;3179;54.350;10.102;2023-12-04T06:27:20;20.37;;;13.70;;
6292;SDS011;3179;54.350;10.102;2023-12-04T06:29:47;19.90;;;13.67;;
6292;SDS011;3179;54.350;10.102;2023-12-04T06:32:16;17.80;;;12.00;;
6292;SDS011;3179;54.350;10.102;2023-12-04T06:34:44;21.57;;;13.40;;
6292;SDS011;3179;54.350;10.102;2023-12-04T06:37:12;18.77;;;12.57;;
6292;SDS011;3179;54.350;10.102;2023-12-04T06:39:41;21.37;;;12.90;;
6292;SDS011;3179;54.350;10.102;2023-12-04T06:42:10;16.03;;;11.00;;
6292;SDS011;3179;54.350;10.102;2023-12-04T06:44:37;20.00;;;12.73;;
6292;SDS011;3179;54.350;10.102;2023-12-04T06:47:05;18.83;;;13.20;;
6292;SDS011;3179;54.350;10.102;2023-12-04T06:49:34;17.73;;;12.87;;
6292;SDS011;3179;54.350;10.102;2023-12-04T06:52:01;23.17;;;13.60;;
6292;SDS011;3179;54.350;10.102;2023-12-04T06:54:29;18.33;;;12.77;;
6292;SDS011;3179;54.350;10.102;2023-12-04T06:56:57;19.93;;;13.63;;
6292;SDS011;3179;54.350;10.102;2023-12-04T06:59:24;18.83;;;12.20;;
6292;SDS011;3179;54.350;10.102;2023-12-04T07:01:50;22.53;;;13.37;;
6292;SDS011;3179;54.350;10.102;2023-12-04T07:04:17;19.40;;;13.20;;
6292;SDS011;3179;54.350;10.102;2023-12-04T07:06:46;21.73;;;14.53;;
6292;SDS011;3179;54.350;10.102;2023-12-04T07:09:14;18.33;;;12.53;;
6292;SDS011;3179;54.350;10.102;2023-12-04T07:11:42;17.97;;;13.10;;
6292;SDS011;3179;54.350;10.102;2023-12-04T07:14:10;19.17;;;13.07;;
6292;SDS011;3179;54.350;10.102;2023-12-04T07:16:40;17.00;;;12.20;;
6292;SDS011;3179;54.350;10.102;2023-12-04T07:19:08;18.73;;;12.57;;
6292;SDS011;3179;54.350;10.102;2023-12-04T07:21:35;18.63;;;12.43;;
6292;SDS011;3179;54.350;10.102;2023-12-04T07:24:02;18.43;;;13.00;;
6292;SDS011;3179;54.350;10.102;2023-12-04T07:26:30;18.80;;;12.40;;
6292;SDS011;3179;54.350;10.102;2023-12-04T07:28:57;18.50;;;13.30;;
6292;SDS011;3179;54.350;10.102;2023-12-04T07:31:25;19.10;;;12.63;;
6292;SDS011;3179;54.350;10.102;2023-12-04T07:33:52;23.70;;;13.90;;
6292;SDS011;3179;54.350;10.102;2023-12-04T07:36:19;22.40;;;14.27;;
6292;SDS011;3179;54.350;10.102;2023-12-04T07:38:47;22.53;;;14.30;;
6292;SDS011;3179;54.350;10.102;2023-12-04T07:41:14;22.03;;;13.30;;
6292;SDS011;3179;54.350;10.102;2023-12-04T07:43:41;23.33;;;14.97;;
6292;SDS011;3179;54.350;10.102;2023-12-04T07:46:09;20.40;;;14.30;;
6292;SDS011;3179;54.350;10.102;2023-12-04T07:48:38;22.03;;;13.70;;
6292;SDS011;3179;54.350;10.102;2023-12-04T07:51:05;21.73;;;14.07;;
6292;SDS011;3179;54.350;10.102;2023-12-04T07:53:32;21.60;;;13.80;;
6292;SDS011;3179;54.350;10.102;2023-12-04T07:56:00;22.50;;;15.03;;
6292;SDS011;3179;54.350;10.102;2023-12-04T07:58:29;20.73;;;15.37;;
6292;SDS011;3179;54.350;10.102;2023-12-04T08:00:55;24.53;;;15.10;;
6292;SDS011;3179;54.350;10.102;2023-12-04T08:03:22;22.17;;;15.00;;
6292;SDS011;3179;54.350;10.102;2023-12-04T08:05:51;22.30;;;14.60;;
6292;SDS011;3179;54.350;10.102;2023-12-04T08:08:18;23.83;;;15.00;;
6292;SDS011;3179;54.350;10.102;2023-12-04T08:10:45;21.50;;;13.93;;
6292;SDS011;3179;54.350;10.102;2023-12-04T08:13:13;25.07;;;16.00;;
6292;SDS011;3179;54.350;10.102;2023-12-04T08:15:40;21.57;;;15.50;;
6292;SDS011;3179;54.350;10.102;2023-12-04T08:18:07;22.83;;;15.53;;
6292;SDS011;3179;54.350;10.102;2023-12-04T08:20:34;24.60;;;16.83;;
6292;SDS011;3179;54.350;10.102;2023-12-04T08:23:02;27.30;;;15.97;;
6292;SDS011;3179;54.350;10.102;2023-12-04T08:25:29;20.00;;;13.67;;
6292;SDS011;3179;54.350;10.102;2023-12-04T08:27:56;20.40;;;13.60;;
6292;SDS011;3179;54.350;10.102;2023-12-04T08:30:24;25.87;;;15.70;;
6292;SDS011;3179;54.350;10.102;2023-12-04T08:32:52;22.80;;;14.37;;
6292;SDS011;3179;54.350;10.102;2023-12-04T08:35:19;25.70;;;14.20;;
6292;SDS011;3179;54.350;10.102;2023-12-04T08:37:47;25.43;;;15.67;;
6292;SDS011;3179;54.350;10.102;2023-12-04T08:40:15;22.97;;;14.90;;
6292;SDS011;3179;54.350;10.102;2023-12-04T08:42:42;22.97;;;15.20;;
6292;SDS011;3179;54.350;10.102;2023-12-04T08:45:10;21.27;;;14.57;;
6292;SDS011;3179;54.350;10.102;2023-12-04T08:47:37;22.70;;;14.47;;
6292;SDS011;3179;54.350;10.102;2023-12-04T08:50:04;24.10;;;14.63;;
6292;SDS011;3179;54.350;10.102;2023-12-04T08:52:32;23.47;;;14.80;;
6292;SDS011;3179;54.350;10.102;2023-12-04T08:54:59;24.80;;;15.23;;
6292;SDS011;3179;54.350;10.102;2023-12-04T08:57:28;25.63;;;14.57;;
6292;SDS011;3179;54.350;10.102;2023-12-04T08:59:55;25.10;;;13.67;;
6292;SDS011;3179;54.350;10.102;2023-12-04T09:02:22;21.20;;;13.33;;
6292;SDS011;3179;54.350;10.102;2023-12-04T09:04:48;23.40;;;15.10;;
6292;SDS011;3179;54.350;10.102;2023-12-04T09:07:15;21.30;;;13.40;;
6292;SDS011;3179;54.350;10.102;2023-12-04T09:09:42;22.97;;;15.00;;
6292;SDS011;3179;54.350;10.102;2023-12-04T09:12:09;21.07;;;13.80;;
6292;SDS011;3179;54.350;10.102;2023-12-04T09:14:38;20.20;;;13.20;;
6292;SDS011;3179;54.350;10.102;2023-12-04T09:17:04;23.83;;;14.60;;
6292;SDS011;3179;54.350;10.102;2023-12-04T09:19:31;24.77;;;14.87;;
6292;SDS011;3179;54.350;10.102;2023-12-04T09:21:58;24.53;;;14.67;;
6292;SDS011;3179;54.350;10.102;2023-12-04T09:24:25;21.13;;;14.50;;
6292;SDS011;3179;54.350;10.102;2023-12-04T09:26:52;23.07;;;14.50;;
6292;SDS011;3179;54.350;10.102;2023-12-04T09:29:20;21.87;;;13.07;;
6292;SDS011;3179;54.350;10.102;2023-12-04T09:31:50;22.60;;;14.50;;
6292;SDS011;3179;54.350;10.102;2023-12-04T09:34:17;24.80;;;15.40;;
6292;SDS011;3179;54.350;10.102;2023-12-04T09:36:45;21.40;;;14.53;;
6292;SDS011;3179;54.350;10.102;2023-12-04T09:39:13;21.27;;;13.67;;
6292;SDS011;3179;54.350;10.102;2023-12-04T09:41:41;21.83;;;14.33;;
6292;SDS011;3179;54.350;10.102;2023-12-04T09:44:09;20.50;;;13.13;;
6292;SDS011;3179;54.350;10.102;2023-12-04T09:46:36;24.23;;;14.67;;
6292;SDS011;3179;54.350;10.102;2023-12-04T09:49:05;20.70;;;12.93;;
6292;SDS011;3179;54.350;10.102;2023-12-04T09:51:32;23.37;;;14.23;;
6292;SDS011;3179;54.350;10.102;2023-12-04T09:54:01;23.97;;;14.97;;
6292;SDS011;3179;54.350;10.102;2023-12-04T09:56:29;19.87;;;13.00;;
6292;SDS011;3179;54.350;10.102;2023-12-04T09:58:58;17.37;;;11.70;;
6292;SDS011;3179;54.350;10.102;2023-12-04T10:01:26;19.93;;;14.00;;
6292;SDS011;3179;54.350;10.102;2023-12-04T10:03:56;22.17;;;13.10;;
6292;SDS011;3179;54.350;10.102;2023-12-04T10:06:24;21.53;;;13.43;;
6292;SDS011;3179;54.350;10.102;2023-12-04T10:08:54;18.17;;;13.13;;
6292;SDS011;3179;54.350;10.102;2023-12-04T10:11:22;18.60;;;12.10;;
6292;SDS011;3179;54.350;10.102;2023-12-04T10:13:49;21.00;;;12.60;;
6292;SDS011;3179;54.350;10.102;2023-12-04T10:16:30;22.00;;;13.93;;
6292;SDS011;3179;54.350;10.102;2023-12-04T10:19:01;17.90;;;12.00;;
6292;SDS011;3179;54.350;10.102;2023-12-04T10:21:42;22.37;;;13.60;;
6292;SDS011;3179;54.350;10.102;2023-12-04T10:24:10;19.30;;;12.40;;
6292;SDS011;3179;54.350;10.102;2023-12-04T10:26:36;21.97;;;12.87;;
6292;SDS011;3179;54.350;10.102;2023-12-04T10:29:04;21.93;;;13.53;;
6292;SDS011;3179;54.350;10.102;2023-12-04T10:31:34;20.30;;;12.47;;
6292;SDS011;3179;54.350;10.102;2023-12-04T10:34:01;17.30;;;11.90;;
6292;SDS011;3179;54.350;10.102;2023-12-04T10:36:29;20.57;;;12.07;;
6292;SDS011;3179;54.350;10.102;2023-12-04T10:38:59;16.80;;;11.43;;
6292;SDS011;3179;54.350;10.102;2023-12-04T10:41:25;21.80;;;13.17;;
6292;SDS011;3179;54.350;10.102;2023-12-04T10:43:52;17.37;;;11.70;;
6292;SDS011;3179;54.350;10.102;2023-12-04T10:46:21;17.27;;;11.40;;
6292;SDS011;3179;54.350;10.102;2023-12-04T10:48:50;19.37;;;11.83;;
6292;SDS011;3179;54.350;10.102;2023-12-04T10:51:17;16.30;;;11.30;;
6292;SDS011;3179;54.350;10.102;2023-12-04T10:53:46;18.07;;;11.77;;
6292;SDS011;3179;54.350;10.102;2023-12-04T10:56:18;18.50;;;12.03;;
6292;SDS011;3179;54.350;10.102;2023-12-04T10:58:50;18.23;;;11.10;;
6292;SDS011;3179;54.350;10.102;2023-12-04T11:01:19;19.57;;;11.80;;
6292;SDS011;3179;54.350;10.102;2023-12-04T11:03:48;19.43;;;12.47;;
6292;SDS011;3179;54.350;10.102;2023-12-04T11:06:21;15.77;;;11.70;;
6292;SDS011;3179;54.350;10.102;2023-12-04T11:08:50;17.83;;;11.77;;
6292;SDS011;3179;54.350;10.102;2023-12-04T11:11:24;16.87;;;11.83;;
6292;SDS011;3179;54.350;10.102;2023-12-04T11:13:56;17.87;;;11.23;;
6292;SDS011;3179;54.350;10.102;2023-12-04T11:16:27;20.70;;;12.27;;
6292;SDS011;3179;54.350;10.102;2023-12-04T11:19:01;18.17;;;11.37;;
6292;SDS011;3179;54.350;10.102;2023-12-04T11:21:34;18.53;;;11.90;;
6292;SDS011;3179;54.350;10.102;2023-12-04T11:24:03;18.10;;;11.23;;
6292;SDS011;3179;54.350;10.102;2023-12-04T11:26:32;15.57;;;11.23;;
6292;SDS011;3179;54.350;10.102;2023-12-04T11:29:00;19.60;;;12.07;;
6292;SDS011;3179;54.350;10.102;2023-12-04T11:31:28;14.70;;;10.57;;
6292;SDS011;3179;54.350;10.102;2023-12-04T11:33:56;19.77;;;11.87;;
6292;SDS011;3179;54.350;10.102;2023-12-04T11:36:28;16.80;;;11.40;;
6292;SDS011;3179;54.350;10.102;2023-12-04T11:38:54;16.10;;;11.13;;
6292;SDS011;3179;54.350;10.102;2023-12-04T11:41:23;14.60;;;10.00;;
6292;SDS011;3179;54.350;10.102;2023-12-04T11:43:52;17.03;;;11.00;;
6292;SDS011;3179;54.350;10.102;2023-12-04T11:46:21;16.10;;;10.57;;
6292;SDS011;3179;54.350;10.102;2023-12-04T11:48:50;18.50;;;11.53;;
6292;SDS011;3179;54.350;10.102;2023-12-04T11:54:16;16.57;;;10.23;;
6292;SDS011;3179;54.350;10.102;2023-12-04T11:56:55;17.40;;;11.50;;
6292;SDS011;3179;54.350;10.102;2023-12-04T11:59:25;23.83;;;12.33;;
6292;SDS011;3179;54.350;10.102;2023-12-04T12:01:53;17.90;;;11.43;;
6292;SDS011;3179;54.350;10.102;2023-12-04T12:04:22;17.67;;;11.13;;
6292;SDS011;3179;54.350;10.102;2023-12-04T12:06:49;17.30;;;11.10;;
6292;SDS011;3179;54.350;10.102;2023-12-04T12:09:16;17.27;;;11.30;;
6292;SDS011;3179;54.350;10.102;2023-12-04T12:11:44;16.07;;;11.17;;
6292;SDS011;3179;54.350;10.102;2023-12-04T12:14:11;16.90;;;11.73;;
6292;SDS011;3179;54.350;10.102;2023-12-04T12:16:40;20.77;;;12.47;;
6292;SDS011;3179;54.350;10.102;2023-12-04T12:19:07;17.73;;;12.37;;
6292;SDS011;3179;54.350;10.102;2023-12-04T12:21:34;19.13;;;12.00;;
6292;SDS011;3179;54.350;10.102;2023-12-04T12:24:02;17.77;;;11.47;;
6292;SDS011;3179;54.350;10.102;2023-12-04T12:26:31;16.00;;;11.70;;
6292;SDS011;3179;54.350;10.102;2023-12-04T12:28:58;17.87;;;12.60;;
6292;SDS011;3179;54.350;10.102;2023-12-04T12:31:25;17.90;;;11.83;;
6292;SDS011;3179;54.350;10.102;2023-12-04T12:33:53;16.57;;;11.07;;
6292;SDS011;3179;54.350;10.102;2023-12-04T12:36:21;17.67;;;11.70;;
6292;SDS011;3179;54.350;10.102;2023-12-04T12:38:48;19.43;;;12.20;;
6292;SDS011;3179;54.350;10.102;2023-12-04T12:41:15;17.43;;;11.80;;
6292;SDS011;3179;54.350;10.102;2023-12-04T12:43:42;16.80;;;10.60;;
6292;SDS011;3179;54.350;10.102;2023-12-04T12:46:10;19.23;;;13.13;;
6292;SDS011;3179;54.350;10.102;2023-12-04T12:48:37;16.80;;;11.87;;
6292;SDS011;3179;54.350;10.102;2023-12-04T12:51:06;17.70;;;11.97;;
6292;SDS011;3179;54.350;10.102;2023-12-04T12:53:36;20.10;;;13.17;;
6292;SDS011;3179;54.350;10.102;2023-12-04T12:56:03;17.80;;;11.97;;
6292;SDS011;3179;54.350;10.102;2023-12-04T12:58:31;19.53;;;13.27;;
6292;SDS011;3179;54.350;10.102;2023-12-04T13:00:59;19.97;;;14.10;;
6292;SDS011;3179;54.350;10.102;2023-12-04T13:03:27;20.47;;;13.90;;
6292;SDS011;3179;54.350;10.102;2023-12-04T13:05:56;20.57;;;14.00;;
6292;SDS011;3179;54.350;10.102;2023-12-04T13:08:24;20.40;;;13.73;;
6292;SDS011;3179;54.350;10.102;2023-12-04T13:10:51;18.13;;;12.33;;
6292;SDS011;3179;54.350;10.102;2023-12-04T13:13:18;23.13;;;13.97;;
6292;SDS011;3179;54.350;10.102;2023-12-04T13:15:45;19.73;;;13.73;;
6292;SDS011;3179;54.350;10.102;2023-12-04T13:18:11;18.80;;;12.80;;
6292;SDS011;3179;54.350;10.102;2023-12-04T13:20:38;20.00;;;13.40;;
6292;SDS011;3179;54.350;10.102;2023-12-04T13:23:05;19.83;;;13.37;;
6292;SDS011;3179;54.350;10.102;2023-12-04T13:25:33;21.00;;;13.80;;
6292;SDS011;3179;54.350;10.102;2023-12-04T13:28:00;18.97;;;12.30;;
6292;SDS011;3179;54.350;10.102;2023-12-04T13:30:27;20.40;;;14.13;;
6292;SDS011;3179;54.350;10.102;2023-12-04T13:32:54;21.80;;;14.73;;
6292;SDS011;3179;54.350;10.102;2023-12-04T13:35:20;21.90;;;13.87;;
6292;SDS011;3179;54.350;10.102;2023-12-04T13:37:47;18.07;;;12.67;;
6292;SDS011;3179;54.350;10.102;2023-12-04T13:40:19;17.80;;;12.70;;
6292;SDS011;3179;54.350;10.102;2023-12-04T13:42:48;19.80;;;12.47;;
6292;SDS011;3179;54.350;10.102;2023-12-04T13:45:32;20.00;;;12.90;;
6292;SDS011;3179;54.350;10.102;2023-12-04T13:48:00;19.97;;;13.67;;
6292;SDS011;3179;54.350;10.102;2023-12-04T13:50:27;19.80;;;13.07;;
6292;SDS011;3179;54.350;10.102;2023-12-04T13:52:54;20.73;;;12.87;;
6292;SDS011;3179;54.350;10.102;2023-12-04T13:55:23;22.83;;;14.63;;
6292;SDS011;3179;54.350;10.102;2023-12-04T13:58:07;20.67;;;14.33;;
6292;SDS011;3179;54.350;10.102;2023-12-04T14:00:52;27.03;;;13.90;;
6292;SDS011;3179;54.350;10.102;2023-12-04T14:03:18;18.13;;;13.07;;
6292;SDS011;3179;54.350;10.102;2023-12-04T14:05:45;19.83;;;12.50;;
6292;SDS011;3179;54.350;10.102;2023-12-04T14:08:12;19.00;;;12.40;;
6292;SDS011;3179;54.350;10.102;2023-12-04T14:10:39;18.73;;;13.30;;
6292;SDS011;3179;54.350;10.102;2023-12-04T14:13:07;17.90;;;12.53;;
6292;SDS011;3179;54.350;10.102;2023-12-04T14:15:34;20.20;;;14.10;;
6292;SDS011;3179;54.350;10.102;2023-12-04T14:18:01;22.77;;;13.90;;
6292;SDS011;3179;54.350;10.102;2023-12-04T14:20:28;22.30;;;14.23;;
6292;SDS011;3179;54.350;10.102;2023-12-04T14:22:55;20.43;;;13.87;;
6292;SDS011;3179;54.350;10.102;2023-12-04T14:25:22;18.13;;;13.60;;
6292;SDS011;3179;54.350;10.102;2023-12-04T14:27:49;18.33;;;11.27;;
6292;SDS011;3179;54.350;10.102;2023-12-04T14:30:17;17.07;;;12.47;;
6292;SDS011;3179;54.350;10.102;2023-12-04T14:32:44;20.30;;;13.80;;
6292;SDS011;3179;54.350;10.102;2023-12-04T14:35:11;20.40;;;13.67;;
6292;SDS011;3179;54.350;10.102;2023-12-04T14:37:38;21.03;;;14.50;;
6292;SDS011;3179;54.350;10.102;2023-12-04T14:40:06;20.23;;;12.23;;